Time;durP1;ratioP1;P1;durP2;ratioP2;P2;SDS_P1;SDS_P2;PMS_P1;PMS_P2;Temp;Humidity;BMP_temperature;BMP_pressure;BME280_temperature;BME280_humidity;BME280_pressure;Samples;Min_cycle;Max_cycle;Signal;HPM_P1;HPM_P2
2022/11/26 00:02:26;;;;;;;340.98;154.55;;;2.80;99.90;;;;;;5135022;28;20411;-62
2022/11/26 00:04:53;;;;;;;357.23;161.73;;;2.90;99.90;;;;;;5135126;28;20461;-62
2022/11/26 00:07:24;;;;;;;395.05;181.13;;;2.90;99.90;;;;;;5135117;28;20027;-62
2022/11/26 00:09:51;;;;;;;397.40;177.85;;;3.00;99.90;;;;;;5135150;28;20027;-62
2022/11/26 00:12:26;;;;;;;376.05;165.57;;;3.00;99.90;;;;;;5135047;28;20023;-62
2022/11/26 00:14:53;;;;;;;339.77;152.60;;;3.00;99.90;;;;;;5134821;28;20075;-62
2022/11/26 00:17:20;;;;;;;349.55;158.05;;;3.00;99.90;;;;;;5135033;28;20362;-62
2022/11/26 00:19:46;;;;;;;319.95;147.38;;;2.80;99.90;;;;;;5134954;28;20023;-62
2022/11/26 00:22:23;;;;;;;313.15;149.88;;;2.80;99.90;;;;;;5116402;28;20023;-62
2022/11/26 00:24:49;;;;;;;344.55;160.10;;;2.70;99.90;;;;;;5135214;28;20084;-62
2022/11/26 00:27:15;;;;;;;367.58;171.60;;;2.70;99.90;;;;;;5134847;28;20076;-62
2022/11/26 00:29:41;;;;;;;365.80;170.13;;;2.70;99.90;;;;;;5116362;28;20110;-63
2022/11/26 00:32:21;;;;;;;348.38;164.02;;;2.70;99.90;;;;;;5134789;28;20023;-63
2022/11/26 00:34:47;;;;;;;355.48;164.43;;;2.50;99.90;;;;;;5134976;28;20380;-62
2022/11/26 00:37:38;;;;;;;342.77;156.82;;;2.50;99.90;;;;;;5136066;27;20023;-62
2022/11/26 00:40:05;;;;;;;347.77;163.77;;;2.50;99.90;;;;;;5138466;27;20030;-62
2022/11/26 00:42:31;;;;;;;319.88;151.48;;;2.40;99.90;;;;;;5138593;27;20034;-62
2022/11/26 00:44:57;;;;;;;326.67;150.00;;;2.20;99.90;;;;;;5138188;27;20464;-62
2022/11/26 00:47:22;;;;;;;324.75;150.48;;;2.10;99.90;;;;;;5138220;27;20046;-62
2022/11/26 00:49:48;;;;;;;301.02;145.27;;;2.20;99.90;;;;;;5138236;27;20019;-62
2022/11/26 00:52:33;;;;;;;295.05;138.38;;;2.20;99.90;;;;;;5138022;27;20377;-62
2022/11/26 00:55:05;;;;;;;313.73;140.65;;;2.00;99.90;;;;;;5138006;27;20080;-62
2022/11/26 00:57:30;;;;;;;287.25;136.73;;;1.90;99.90;;;;;;5138086;27;20027;-62
2022/11/26 00:59:56;;;;;;;302.15;141.68;;;1.80;99.90;;;;;;5138221;27;20402;-62
2022/11/26 01:02:22;;;;;;;291.40;133.20;;;1.80;99.90;;;;;;5138062;27;20023;-62
2022/11/26 01:04:48;;;;;;;291.85;135.55;;;1.90;99.90;;;;;;5137994;27;20400;-61
2022/11/26 01:07:14;;;;;;;296.00;135.70;;;2.00;99.90;;;;;;5137933;27;20058;-62
2022/11/26 01:09:43;;;;;;;307.90;140.23;;;2.10;99.90;;;;;;5137796;27;20043;-62
2022/11/26 01:12:13;;;;;;;285.27;131.63;;;2.20;99.90;;;;;;5137741;27;20477;-62
2022/11/26 01:14:39;;;;;;;357.92;164.55;;;2.30;99.90;;;;;;5137593;27;20054;-63
2022/11/26 01:17:10;;;;;;;266.58;124.47;;;2.30;99.90;;;;;;5137789;27;20368;-62
2022/11/26 01:19:36;;;;;;;280.52;132.32;;;2.30;99.90;;;;;;5137680;27;20019;-62
2022/11/26 01:22:02;;;;;;;276.38;130.43;;;2.10;99.90;;;;;;5137612;27;20027;-62
2022/11/26 01:24:28;;;;;;;255.05;125.53;;;1.90;99.90;;;;;;5137684;27;20039;-62
2022/11/26 01:26:54;;;;;;;264.25;124.28;;;1.90;99.90;;;;;;5137524;27;20053;-62
2022/11/26 01:29:20;;;;;;;266.38;121.97;;;1.80;99.90;;;;;;5137461;27;20034;-63
2022/11/26 01:31:46;;;;;;;265.95;125.80;;;1.70;99.90;;;;;;5137384;27;20089;-62
2022/11/26 01:34:12;;;;;;;255.98;120.47;;;1.70;99.90;;;;;;5137278;27;20019;-62
2022/11/26 01:36:39;;;;;;;272.75;126.15;;;1.60;99.90;;;;;;5137622;27;20102;-62
2022/11/26 01:39:17;;;;;;;291.73;137.05;;;1.80;99.90;;;;;;5137672;27;20047;-62
2022/11/26 01:42:12;;;;;;;273.23;128.05;;;1.80;99.90;;;;;;5137256;27;20027;-62
2022/11/26 01:44:38;;;;;;;274.60;126.97;;;1.70;99.90;;;;;;5134812;27;20039;-62
2022/11/26 01:47:19;;;;;;;277.70;130.55;;;1.60;99.90;;;;;;5137275;27;20491;-62
2022/11/26 01:50:38;;;;;;;285.40;130.60;;;1.60;99.90;;;;;;5136830;27;20027;-63
2022/11/26 01:53:12;;;;;;;288.85;132.65;;;1.40;99.90;;;;;;5137388;27;20059;-62
2022/11/26 01:55:48;;;;;;;279.40;132.23;;;1.40;99.90;;;;;;5136973;27;20358;-62
2022/11/26 01:58:24;;;;;;;274.58;130.40;;;1.40;99.90;;;;;;5136744;27;20023;-62
2022/11/26 02:00:50;;;;;;;292.98;132.95;;;1.30;99.90;;;;;;5136969;27;20031;-62
2022/11/26 02:03:22;;;;;;;298.17;132.18;;;1.20;99.90;;;;;;5136757;27;20064;-62
2022/11/26 02:05:58;;;;;;;324.48;140.25;;;1.30;99.90;;;;;;5136810;27;20030;-62
2022/11/26 02:08:26;;;;;;;335.65;148.88;;;1.30;99.90;;;;;;5136563;27;20028;-62
2022/11/26 02:10:52;;;;;;;325.42;144.02;;;1.30;99.90;;;;;;5136572;27;20023;-62
2022/11/26 02:13:19;;;;;;;316.67;145.65;;;1.10;99.90;;;;;;5136633;27;20045;-62
2022/11/26 02:16:07;;;;;;;302.88;141.48;;;1.10;99.90;;;;;;5136387;27;20069;-63
2022/11/26 02:18:40;;;;;;;296.13;138.50;;;1.10;99.90;;;;;;5136522;27;20115;-62
2022/11/26 02:21:16;;;;;;;301.70;134.27;;;1.10;99.90;;;;;;5136430;27;20023;-62
2022/11/26 02:23:51;;;;;;;302.08;137.00;;;1.20;99.90;;;;;;5136471;27;20031;-62
2022/11/26 02:26:31;;;;;;;286.90;129.63;;;1.20;99.90;;;;;;5136345;27;20027;-62
2022/11/26 02:29:01;;;;;;;283.17;127.65;;;1.20;99.90;;;;;;5136413;27;20019;-62
2022/11/26 02:31:55;;;;;;;275.35;122.88;;;1.20;99.90;;;;;;5117862;27;20084;-62
2022/11/26 02:34:55;;;;;;;261.90;118.28;;;1.20;99.90;;;;;;5136085;27;20407;-62
2022/11/26 02:37:30;;;;;;;216.93;96.03;;;1.10;99.90;;;;;;5136305;27;20027;-62
2022/11/26 02:39:56;;;;;;;278.55;125.55;;;1.00;99.90;;;;;;5136138;27;20027;-62
2022/11/26 02:42:32;;;;;;;286.50;129.95;;;1.00;99.90;;;;;;5136193;27;20337;-62
2022/11/26 02:45:03;;;;;;;302.92;130.23;;;1.10;99.90;;;;;;5135987;27;20042;-62
2022/11/26 02:47:31;;;;;;;319.95;126.88;;;1.20;99.90;;;;;;5136349;27;20039;-62
2022/11/26 02:50:02;;;;;;;667.67;257.67;;;1.30;99.90;;;;;;5135852;27;20075;-62
2022/11/26 02:52:30;;;;;;;567.63;208.73;;;1.40;99.90;;;;;;5136408;27;20522;-62
2022/11/26 02:54:57;;;;;;;407.25;156.88;;;1.50;99.90;;;;;;5135888;27;20472;-62
2022/11/26 02:57:28;;;;;;;406.23;156.32;;;1.60;99.90;;;;;;5135778;27;20029;-62
2022/11/26 02:59:55;;;;;;;411.13;159.25;;;1.50;99.90;;;;;;5135271;27;20066;-62
2022/11/26 03:02:25;;;;;;;415.88;161.68;;;1.50;99.90;;;;;;5135833;27;20024;-62
2022/11/26 03:04:55;;;;;;;366.97;145.13;;;1.60;99.90;;;;;;5135982;27;20431;-62
2022/11/26 03:07:21;;;;;;;338.20;138.20;;;1.60;99.90;;;;;;5135747;27;20263;-62
2022/11/26 03:09:53;;;;;;;304.65;129.82;;;1.70;99.90;;;;;;5117325;27;20720;-62
2022/11/26 03:12:20;;;;;;;267.00;115.28;;;1.70;99.90;;;;;;5135786;27;20077;-62
2022/11/26 03:14:45;;;;;;;269.70;118.72;;;1.70;99.90;;;;;;5135702;27;20043;-62
2022/11/26 03:17:11;;;;;;;253.23;116.82;;;1.60;99.90;;;;;;5135502;27;20030;-62
2022/11/26 03:19:37;;;;;;;234.27;103.18;;;1.50;99.90;;;;;;5135648;27;20106;-62
2022/11/26 03:22:03;;;;;;;238.75;105.70;;;1.40;99.90;;;;;;5135580;27;20063;-62
2022/11/26 03:24:30;;;;;;;218.82;99.68;;;1.50;99.90;;;;;;5135466;28;20027;-62
2022/11/26 03:26:55;;;;;;;217.52;100.05;;;1.40;99.90;;;;;;5135469;28;20038;-62
2022/11/26 03:29:21;;;;;;;224.73;103.65;;;1.40;99.90;;;;;;5135614;28;20019;-62
2022/11/26 03:31:47;;;;;;;292.65;127.75;;;1.50;99.90;;;;;;5135329;28;20024;-62
2022/11/26 03:34:13;;;;;;;280.73;121.05;;;1.60;99.90;;;;;;5135370;28;20020;-62
2022/11/26 03:36:39;;;;;;;265.10;116.82;;;1.60;99.90;;;;;;5135412;28;20027;-62
2022/11/26 03:39:05;;;;;;;237.23;104.50;;;1.40;99.90;;;;;;5135402;28;20020;-62
2022/11/26 03:41:31;;;;;;;213.07;93.57;;;1.30;99.90;;;;;;5135486;28;20019;-62
2022/11/26 03:43:57;;;;;;;201.50;90.43;;;1.30;99.90;;;;;;5135304;28;20106;-62
2022/11/26 03:46:23;;;;;;;209.00;92.90;;;1.30;99.90;;;;;;5135184;28;20106;-62
2022/11/26 03:48:49;;;;;;;200.15;92.30;;;1.10;99.90;;;;;;5135261;28;20047;-62
2022/11/26 03:51:15;;;;;;;199.25;88.22;;;1.10;99.90;;;;;;5135053;28;20074;-62
2022/11/26 03:53:41;;;;;;;198.60;86.05;;;1.10;99.90;;;;;;5135178;28;20054;-62
2022/11/26 03:56:07;;;;;;;163.23;75.72;;;1.00;99.90;;;;;;5135241;28;20047;-62
2022/11/26 03:58:33;;;;;;;144.70;68.53;;;1.00;99.90;;;;;;5135127;28;20030;-62
2022/11/26 04:01:00;;;;;;;137.80;64.10;;;1.10;99.90;;;;;;5135115;28;20027;-62
2022/11/26 04:03:25;;;;;;;151.63;70.25;;;1.00;99.90;;;;;;5135150;28;20095;-62
2022/11/26 04:05:51;;;;;;;124.15;59.72;;;1.10;99.90;;;;;;5135023;28;20105;-62
2022/11/26 04:08:17;;;;;;;101.57;49.50;;;1.00;99.90;;;;;;5135098;28;20023;-62
2022/11/26 04:10:43;;;;;;;118.10;52.80;;;1.10;99.90;;;;;;5135580;27;20023;-62
2022/11/26 04:13:09;;;;;;;121.85;58.78;;;1.00;99.90;;;;;;5139002;27;20031;-62
2022/11/26 04:15:35;;;;;;;122.60;59.50;;;0.90;99.90;;;;;;5138814;27;20187;-62
2022/11/26 04:18:01;;;;;;;132.32;61.30;;;0.80;99.90;;;;;;5138929;27;20104;-62
2022/11/26 04:20:27;;;;;;;150.30;70.45;;;0.80;99.90;;;;;;5138908;27;20050;-62
2022/11/26 04:22:53;;;;;;;165.15;74.60;;;0.80;99.90;;;;;;5138924;27;20034;-62
2022/11/26 04:25:19;;;;;;;148.90;68.53;;;0.80;99.90;;;;;;5138903;27;20028;-62
2022/11/26 04:27:45;;;;;;;141.35;65.32;;;0.90;99.90;;;;;;5138865;27;20031;-62
2022/11/26 04:30:11;;;;;;;136.07;62.53;;;0.80;99.90;;;;;;5138692;27;20118;-62
2022/11/26 04:32:38;;;;;;;146.70;69.38;;;0.90;99.90;;;;;;5138431;27;20027;-62
2022/11/26 04:35:06;;;;;;;140.73;68.63;;;1.00;99.90;;;;;;5138611;27;20068;-62
2022/11/26 04:37:33;;;;;;;157.45;72.13;;;1.00;99.90;;;;;;5138697;27;20023;-62
2022/11/26 04:39:59;;;;;;;154.88;73.45;;;0.90;99.90;;;;;;5138630;27;20438;-62
2022/11/26 04:42:25;;;;;;;161.90;74.95;;;0.80;99.90;;;;;;5138410;27;20085;-62
2022/11/26 04:44:51;;;;;;;171.90;76.60;;;0.80;99.90;;;;;;5138276;27;20023;-62
2022/11/26 04:47:17;;;;;;;164.27;76.55;;;0.80;99.90;;;;;;5138366;27;20528;-62
2022/11/26 04:49:43;;;;;;;174.35;77.80;;;0.70;99.90;;;;;;5138077;27;20060;-62
2022/11/26 04:52:09;;;;;;;206.55;87.32;;;0.70;99.90;;;;;;5138338;27;20027;-62
2022/11/26 04:54:35;;;;;;;222.20;93.78;;;0.70;99.90;;;;;;5138317;27;20082;-62
2022/11/26 04:57:01;;;;;;;210.50;92.10;;;0.70;99.90;;;;;;5138136;27;20081;-62
2022/11/26 04:59:27;;;;;;;189.35;84.60;;;0.70;99.90;;;;;;5138150;27;20023;-62
2022/11/26 05:01:52;;;;;;;184.63;84.90;;;0.70;99.90;;;;;;5119780;27;20053;-62
2022/11/26 05:04:19;;;;;;;191.98;84.82;;;0.60;99.90;;;;;;5137949;27;20033;-62
2022/11/26 05:06:45;;;;;;;202.05;86.18;;;0.70;99.90;;;;;;5138090;27;20492;-62
2022/11/26 05:09:11;;;;;;;225.13;92.50;;;0.70;99.90;;;;;;5137885;27;20038;-62
2022/11/26 05:11:37;;;;;;;230.85;92.75;;;0.90;99.90;;;;;;5137969;27;20388;-62
2022/11/26 05:14:03;;;;;;;224.63;95.22;;;0.90;99.90;;;;;;5137835;27;20388;-62
2022/11/26 05:16:29;;;;;;;244.18;96.18;;;0.90;99.90;;;;;;5138007;27;20512;-62
2022/11/26 05:18:55;;;;;;;226.77;91.28;;;0.90;99.90;;;;;;5137547;27;20080;-62
2022/11/26 05:21:21;;;;;;;224.35;90.20;;;0.90;99.90;;;;;;5137743;27;20061;-62
2022/11/26 05:23:47;;;;;;;187.00;80.35;;;1.00;99.90;;;;;;5137195;27;20374;-62
2022/11/26 05:26:12;;;;;;;196.43;81.88;;;1.00;99.90;;;;;;5137720;27;20033;-62
2022/11/26 05:28:38;;;;;;;191.93;81.63;;;1.00;99.90;;;;;;5137518;27;20080;-62
2022/11/26 05:31:05;;;;;;;171.43;77.40;;;1.00;99.90;;;;;;5137395;27;20045;-62
2022/11/26 05:33:31;;;;;;;149.15;65.88;;;0.90;99.90;;;;;;5137393;27;20102;-62
2022/11/26 05:35:57;;;;;;;123.20;57.72;;;0.90;99.90;;;;;;5137598;27;20060;-62
2022/11/26 05:38:23;;;;;;;142.15;60.72;;;0.90;99.90;;;;;;5137402;27;20023;-62
2022/11/26 05:40:49;;;;;;;155.60;68.38;;;1.00;99.90;;;;;;5137454;27;20023;-62
2022/11/26 05:43:15;;;;;;;163.02;70.00;;;0.90;99.90;;;;;;5137197;27;20023;-63
2022/11/26 05:45:41;;;;;;;158.40;68.40;;;0.80;99.90;;;;;;5137119;27;20028;-62
2022/11/26 05:48:06;;;;;;;165.75;71.18;;;0.70;99.90;;;;;;5137108;27;20026;-62
2022/11/26 05:50:32;;;;;;;181.77;73.28;;;0.80;99.90;;;;;;5137140;27;20076;-62
2022/11/26 05:52:58;;;;;;;174.82;75.05;;;0.70;99.90;;;;;;5137060;27;20094;-62
2022/11/26 05:55:24;;;;;;;162.82;67.07;;;0.70;99.90;;;;;;5137026;27;20128;-61
2022/11/26 05:57:51;;;;;;;156.70;69.55;;;0.70;99.90;;;;;;5136842;27;20030;-62
2022/11/26 06:00:17;;;;;;;155.40;70.97;;;0.70;99.90;;;;;;5137028;27;20106;-62
2022/11/26 06:02:43;;;;;;;149.88;69.95;;;0.80;99.90;;;;;;5136832;27;20042;-62
2022/11/26 06:05:10;;;;;;;145.27;67.70;;;0.80;99.90;;;;;;5136847;27;20099;-62
2022/11/26 06:07:36;;;;;;;151.57;71.30;;;0.70;99.90;;;;;;5136811;27;20037;-62
2022/11/26 06:10:03;;;;;;;142.15;63.78;;;0.70;99.90;;;;;;5136960;27;20464;-62
2022/11/26 06:12:29;;;;;;;182.25;72.72;;;0.80;99.90;;;;;;5136692;27;20039;-62
2022/11/26 06:14:54;;;;;;;206.82;78.95;;;0.90;99.90;;;;;;5136500;27;20107;-62
2022/11/26 06:17:20;;;;;;;198.43;79.75;;;0.80;99.90;;;;;;5136673;27;20081;-62
2022/11/26 06:19:46;;;;;;;214.38;85.18;;;0.90;99.90;;;;;;5136545;27;20110;-62
2022/11/26 06:22:12;;;;;;;218.93;86.80;;;0.70;99.90;;;;;;5136459;27;20030;-62
2022/11/26 06:24:38;;;;;;;219.63;83.97;;;0.70;99.90;;;;;;5136549;27;20050;-62
2022/11/26 06:27:04;;;;;;;188.13;76.47;;;0.70;99.90;;;;;;5136516;27;20031;-62
2022/11/26 06:29:30;;;;;;;192.30;77.53;;;0.70;99.90;;;;;;5136423;27;20514;-62
2022/11/26 06:31:56;;;;;;;191.43;78.03;;;0.70;99.90;;;;;;5136182;27;20019;-62
2022/11/26 06:34:22;;;;;;;191.93;79.05;;;0.70;99.90;;;;;;5135413;27;20549;-62
2022/11/26 06:36:48;;;;;;;186.25;76.40;;;0.70;99.90;;;;;;5136478;27;20023;-63
2022/11/26 06:39:14;;;;;;;175.52;76.75;;;0.80;99.90;;;;;;5136097;27;20361;-62
2022/11/26 06:41:40;;;;;;;160.95;68.25;;;0.90;99.90;;;;;;5136257;27;20511;-62
2022/11/26 06:44:05;;;;;;;151.82;65.68;;;1.00;99.90;;;;;;5136384;27;20411;-62
2022/11/26 06:46:34;;;;;;;138.02;58.33;;;1.10;99.90;;;;;;5135969;27;20481;-62
2022/11/26 06:49:04;;;;;;;117.97;49.15;;;1.40;99.90;;;;;;5135994;27;20027;-62
2022/11/26 06:51:30;;;;;;;116.40;51.72;;;1.60;99.90;;;;;;5136023;27;20118;-62
2022/11/26 06:53:56;;;;;;;119.63;51.58;;;1.90;99.90;;;;;;5135898;27;20027;-62
2022/11/26 06:56:22;;;;;;;108.15;48.25;;;2.40;99.90;;;;;;5135957;27;20015;-62
2022/11/26 06:58:50;;;;;;;129.98;58.55;;;2.90;99.90;;;;;;5136027;27;20019;-62
2022/11/26 07:01:22;;;;;;;118.28;52.88;;;3.10;99.90;;;;;;5135727;27;20098;-62
2022/11/26 07:03:48;;;;;;;101.57;51.10;;;3.50;99.90;;;;;;5135896;27;20063;-62
2022/11/26 07:06:25;;;;;;;108.55;50.03;;;4.00;99.90;;;;;;5135852;27;20027;-62
2022/11/26 07:08:54;;;;;;;109.07;49.35;;;4.40;99.90;;;;;;5135655;27;20034;-62
2022/11/26 07:11:21;;;;;;;96.22;47.13;;;4.50;99.90;;;;;;5135673;27;20027;-62
2022/11/26 07:13:47;;;;;;;86.80;40.92;;;5.00;99.90;;;;;;5135757;27;20027;-62
2022/11/26 07:16:14;;;;;;;94.10;42.03;;;5.60;99.90;;;;;;5135556;27;20039;-62
2022/11/26 07:18:40;;;;;;;99.90;44.08;;;5.80;98.70;;;;;;5135477;27;20027;-62
2022/11/26 07:21:08;;;;;;;96.40;44.25;;;6.20;98.30;;;;;;5135548;27;20034;-63
2022/11/26 07:23:35;;;;;;;99.38;47.47;;;6.30;97.90;;;;;;5135580;27;20029;-62
2022/11/26 07:26:02;;;;;;;117.05;55.03;;;6.50;97.50;;;;;;5135474;28;20027;-62
2022/11/26 07:28:28;;;;;;;133.48;61.67;;;6.80;94.90;;;;;;5135697;28;20058;-62
2022/11/26 07:31:03;;;;;;;150.25;75.00;;;7.00;93.80;;;;;;5135394;28;20418;-62
2022/11/26 07:33:29;;;;;;;145.63;76.25;;;7.30;92.20;;;;;;5117114;28;20034;-62
2022/11/26 07:36:02;;;;;;;159.45;78.80;;;7.50;91.90;;;;;;5135453;28;20038;-62
2022/11/26 07:38:29;;;;;;;182.57;89.07;;;7.50;90.50;;;;;;5135406;28;20058;-62
2022/11/26 07:41:02;;;;;;;176.05;86.10;;;7.80;90.70;;;;;;5135468;28;20031;-62
2022/11/26 07:43:28;;;;;;;194.95;97.15;;;7.80;90.30;;;;;;5132342;28;20464;-63
2022/11/26 07:45:54;;;;;;;215.10;103.22;;;7.70;89.20;;;;;;5131683;27;20034;-62
2022/11/26 07:48:20;;;;;;;223.18;110.72;;;7.70;91.10;;;;;;5139559;27;20031;-63
2022/11/26 07:50:46;;;;;;;205.30;105.75;;;7.60;90.20;;;;;;5136811;27;20019;-62
2022/11/26 07:53:13;;;;;;;204.32;104.18;;;7.50;90.10;;;;;;5135406;27;20031;-62
2022/11/26 07:55:39;;;;;;;203.13;100.88;;;7.60;90.30;;;;;;5138274;27;20027;-62
2022/11/26 07:58:05;;;;;;;205.85;105.25;;;7.50;90.70;;;;;;5120993;27;20034;-63
2022/11/26 08:00:31;;;;;;;184.68;99.68;;;7.40;90.30;;;;;;5138522;27;20020;-63
2022/11/26 08:02:58;;;;;;;185.43;99.50;;;7.50;90.40;;;;;;5139088;27;20052;-63
2022/11/26 08:05:24;;;;;;;171.15;93.25;;;7.50;91.00;;;;;;5139210;27;20398;-63
2022/11/26 08:07:50;;;;;;;176.75;92.72;;;7.20;90.90;;;;;;5139026;27;20385;-62
2022/11/26 08:10:16;;;;;;;169.70;90.70;;;7.40;91.10;;;;;;5138919;27;20370;-62
2022/11/26 08:12:42;;;;;;;173.63;92.65;;;7.20;91.50;;;;;;5139102;27;20431;-62
2022/11/26 08:15:08;;;;;;;177.15;97.28;;;6.80;92.00;;;;;;5138344;27;20047;-63
2022/11/26 08:17:34;;;;;;;189.77;101.60;;;6.90;93.20;;;;;;5139110;27;20025;-63
2022/11/26 08:20:00;;;;;;;179.15;99.88;;;6.80;92.80;;;;;;5139106;27;20023;-63
2022/11/26 08:22:28;;;;;;;188.30;101.82;;;7.00;92.60;;;;;;5137324;27;20031;-62
2022/11/26 08:24:55;;;;;;;181.75;99.75;;;6.70;92.80;;;;;;5138590;27;20035;-63
2022/11/26 08:27:21;;;;;;;183.32;97.65;;;6.80;93.30;;;;;;5137978;27;20095;-63
2022/11/26 08:29:47;;;;;;;175.45;98.85;;;6.50;94.60;;;;;;5137611;27;20023;-63
2022/11/26 08:32:12;;;;;;;175.30;97.88;;;6.40;95.40;;;;;;5118375;28;20024;-62
2022/11/26 08:34:38;;;;;;;166.00;94.55;;;6.60;95.90;;;;;;5117643;28;20066;-62
2022/11/26 08:37:04;;;;;;;178.90;97.90;;;6.40;95.70;;;;;;5116134;28;20117;-62
2022/11/26 08:39:30;;;;;;;193.95;99.90;;;6.60;94.90;;;;;;5110887;27;20023;-62
2022/11/26 08:41:56;;;;;;;190.68;98.75;;;6.50;97.00;;;;;;5124162;27;20088;-62
2022/11/26 08:44:22;;;;;;;179.05;93.00;;;6.70;96.60;;;;;;5117765;28;20028;-62
2022/11/26 08:46:48;;;;;;;168.18;91.05;;;7.00;96.40;;;;;;5117947;28;20134;-62
2022/11/26 08:49:15;;;;;;;174.20;95.43;;;6.80;96.20;;;;;;5117714;28;20438;-63
2022/11/26 08:51:42;;;;;;;171.00;94.47;;;6.90;97.10;;;;;;5116891;27;20031;-62
2022/11/26 08:54:09;;;;;;;188.80;96.00;;;7.20;95.70;;;;;;5138259;27;20023;-62
2022/11/26 08:56:35;;;;;;;160.23;91.38;;;7.30;95.80;;;;;;5138181;27;20044;-62
2022/11/26 08:59:01;;;;;;;183.82;97.85;;;7.30;95.50;;;;;;5137057;27;20035;-62
2022/11/26 09:01:31;;;;;;;175.50;94.78;;;7.40;95.50;;;;;;5138104;27;20026;-63
2022/11/26 09:03:59;;;;;;;172.13;93.40;;;7.50;95.10;;;;;;5137976;27;20027;-62
2022/11/26 09:06:27;;;;;;;172.05;91.35;;;7.90;95.60;;;;;;5137938;27;20395;-62
2022/11/26 09:09:12;;;;;;;183.02;93.93;;;8.20;94.20;;;;;;5137904;27;20519;-62
2022/11/26 09:11:47;;;;;;;177.88;95.30;;;8.10;93.70;;;;;;5137834;27;20146;-62
2022/11/26 09:14:14;;;;;;;172.70;92.00;;;8.20;94.30;;;;;;5137676;27;20023;-62
2022/11/26 09:16:40;;;;;;;167.02;93.03;;;8.20;93.30;;;;;;5137597;27;20023;-62
2022/11/26 09:19:06;;;;;;;163.30;89.35;;;8.20;94.70;;;;;;5137713;27;20049;-62
2022/11/26 09:21:34;;;;;;;165.85;88.20;;;8.30;93.30;;;;;;5137725;27;20031;-62
2022/11/26 09:24:00;;;;;;;155.98;85.40;;;8.00;94.60;;;;;;5137639;27;20035;-62
2022/11/26 09:26:32;;;;;;;155.20;81.90;;;8.10;95.10;;;;;;5137366;27;20373;-63
2022/11/26 09:28:59;;;;;;;159.15;82.18;;;8.30;95.50;;;;;;5137478;27;20057;-62
2022/11/26 09:31:25;;;;;;;151.68;81.93;;;8.50;95.00;;;;;;5137497;27;20030;-62
2022/11/26 09:33:53;;;;;;;152.88;83.78;;;8.70;94.80;;;;;;5137386;27;20026;-63
2022/11/26 09:36:19;;;;;;;148.15;83.68;;;9.10;93.50;;;;;;5137440;27;20047;-62
2022/11/26 09:38:45;;;;;;;160.95;87.07;;;8.90;93.80;;;;;;5137443;27;20076;-63
2022/11/26 09:41:36;;;;;;;165.82;88.32;;;9.40;94.20;;;;;;5137326;27;20031;-63
2022/11/26 09:44:30;;;;;;;169.95;90.32;;;9.10;93.20;;;;;;5137427;27;20031;-63
2022/11/26 09:46:56;;;;;;;174.50;93.57;;;9.50;92.40;;;;;;5137118;27;20027;-63
2022/11/26 09:49:23;;;;;;;180.35;91.82;;;8.90;92.60;;;;;;5118519;27;20027;-63
2022/11/26 09:51:54;;;;;;;154.95;81.95;;;9.10;93.70;;;;;;5136960;27;20349;-62
2022/11/26 09:54:23;;;;;;;149.00;82.00;;;9.40;92.70;;;;;;5137176;27;20025;-63
2022/11/26 09:56:59;;;;;;;163.13;82.90;;;9.60;92.70;;;;;;5137360;27;20030;-63
2022/11/26 09:59:28;;;;;;;145.77;74.10;;;9.60;93.30;;;;;;5136835;27;20366;-63
2022/11/26 10:01:54;;;;;;;156.18;82.05;;;9.60;92.60;;;;;;5137102;27;20114;-63
2022/11/26 10:04:32;;;;;;;157.75;88.55;;;9.60;92.00;;;;;;5136737;27;20134;-63
2022/11/26 10:07:10;;;;;;;174.45;98.40;;;9.50;92.10;;;;;;5136739;27;20029;-63
2022/11/26 10:09:43;;;;;;;198.70;106.75;;;9.30;93.30;;;;;;5136440;27;20031;-63
2022/11/26 10:12:18;;;;;;;201.98;109.72;;;9.30;93.00;;;;;;5136641;27;20057;-63
2022/11/26 10:15:07;;;;;;;206.93;115.20;;;9.20;93.60;;;;;;5136415;27;20189;-62
2022/11/26 10:17:44;;;;;;;219.70;118.28;;;8.70;94.10;;;;;;5136499;27;20043;-63
2022/11/26 10:20:19;;;;;;;222.15;116.70;;;8.70;95.10;;;;;;5136391;27;20034;-62
2022/11/26 10:22:59;;;;;;;219.07;118.20;;;8.70;95.00;;;;;;5136507;27;20055;-63
2022/11/26 10:25:33;;;;;;;212.70;109.97;;;8.50;96.00;;;;;;5136364;27;20389;-62
2022/11/26 10:28:03;;;;;;;202.40;106.72;;;8.30;97.10;;;;;;5136303;27;20115;-63
2022/11/26 10:30:29;;;;;;;187.90;100.15;;;8.40;97.40;;;;;;5136326;27;20027;-62
2022/11/26 10:33:01;;;;;;;208.40;101.13;;;8.30;97.70;;;;;;5136228;27;20039;-63
2022/11/26 10:35:28;;;;;;;199.68;102.82;;;8.30;98.10;;;;;;5136183;27;20015;-63
2022/11/26 10:37:56;;;;;;;230.30;112.25;;;8.30;98.00;;;;;;5136254;27;20362;-63
2022/11/26 10:40:30;;;;;;;250.30;117.80;;;8.30;98.30;;;;;;5136230;27;20395;-63
2022/11/26 10:43:04;;;;;;;289.45;123.25;;;8.30;99.00;;;;;;5136019;27;20023;-63
2022/11/26 10:45:48;;;;;;;302.60;122.07;;;8.20;99.90;;;;;;5136006;27;20408;-62
2022/11/26 10:48:34;;;;;;;294.23;120.05;;;8.20;99.90;;;;;;5117524;27;20042;-62
2022/11/26 10:51:24;;;;;;;396.95;134.13;;;8.40;99.90;;;;;;5135832;27;20528;-62
2022/11/26 10:53:57;;;;;;;408.60;138.23;;;8.50;99.90;;;;;;5136013;27;20023;-63
2022/11/26 10:56:31;;;;;;;440.50;148.13;;;8.70;99.90;;;;;;5135701;27;20072;-63
2022/11/26 10:59:12;;;;;;;503.30;157.02;;;8.70;99.90;;;;;;5135833;27;20020;-63
2022/11/26 11:01:39;;;;;;;549.65;171.18;;;8.80;99.90;;;;;;5135807;27;20035;-62
2022/11/26 11:04:22;;;;;;;541.40;173.43;;;9.00;99.70;;;;;;5135725;27;20027;-63
2022/11/26 11:06:47;;;;;;;587.80;184.88;;;9.10;99.90;;;;;;5117294;27;20059;-63
2022/11/26 11:09:30;;;;;;;562.25;183.13;;;9.30;99.10;;;;;;5135523;27;20069;-63
2022/11/26 11:12:17;;;;;;;562.53;179.25;;;9.30;98.40;;;;;;5135546;27;20486;-63
2022/11/26 11:14:46;;;;;;;613.13;192.13;;;9.00;98.80;;;;;;5135577;27;20046;-63
2022/11/26 11:17:36;;;;;;;669.88;219.10;;;9.00;99.90;;;;;;5135581;27;20536;-63
2022/11/26 11:20:16;;;;;;;699.45;238.80;;;9.10;99.90;;;;;;5114911;28;20384;-63
2022/11/26 11:22:44;;;;;;;722.13;239.73;;;9.20;99.90;;;;;;5114902;28;20111;-63
2022/11/26 11:25:31;;;;;;;750.28;251.48;;;9.00;99.40;;;;;;5114870;28;20039;-63
2022/11/26 11:28:20;;;;;;;754.58;256.42;;;8.90;99.40;;;;;;5114833;28;20028;-63
2022/11/26 11:30:55;;;;;;;725.35;241.85;;;8.70;99.90;;;;;;5096659;28;20031;-63
2022/11/26 11:33:24;;;;;;;639.20;215.88;;;8.60;99.90;;;;;;5114655;28;20024;-63
2022/11/26 11:36:05;;;;;;;640.20;218.07;;;8.50;99.90;;;;;;5114759;28;20032;-63
2022/11/26 11:38:47;;;;;;;634.45;210.90;;;8.40;99.90;;;;;;5114889;28;20110;-62
2022/11/26 11:41:31;;;;;;;641.45;216.85;;;8.50;99.90;;;;;;5114719;28;20032;-62
2022/11/26 11:44:22;;;;;;;663.15;227.35;;;8.50;99.90;;;;;;5114804;28;20107;-63
2022/11/26 11:47:25;;;;;;;670.10;234.32;;;8.60;99.90;;;;;;5114845;28;20059;-62
2022/11/26 11:50:16;;;;;;;685.90;236.15;;;8.50;99.90;;;;;;5116424;28;20380;-63
2022/11/26 11:53:16;;;;;;;702.58;249.55;;;8.60;99.90;;;;;;5135044;28;20109;-63
2022/11/26 11:56:19;;;;;;;723.78;258.33;;;8.60;99.90;;;;;;5135375;28;20019;-63
2022/11/26 11:59:08;;;;;;;749.50;268.20;;;8.60;99.90;;;;;;5135089;28;20392;-63
2022/11/26 12:01:55;;;;;;;720.53;253.13;;;8.60;99.90;;;;;;5135124;28;20373;-63
2022/11/26 12:05:02;;;;;;;691.90;243.50;;;8.50;99.90;;;;;;5134946;28;20040;-62
2022/11/26 12:07:34;;;;;;;647.25;223.00;;;8.70;99.90;;;;;;5135011;28;20177;-63
2022/11/26 12:10:24;;;;;;;602.33;211.80;;;8.50;99.90;;;;;;5134931;28;20484;-63
2022/11/26 12:12:58;;;;;;;603.97;209.98;;;8.30;99.90;;;;;;5135074;28;20031;-63
2022/11/26 12:15:28;;;;;;;585.60;204.88;;;8.30;99.90;;;;;;5134849;28;20051;-62
2022/11/26 12:18:27;;;;;;;551.92;199.65;;;8.30;99.90;;;;;;5134804;28;20426;-62
2022/11/26 12:21:04;;;;;;;550.90;193.98;;;8.40;99.90;;;;;;5115440;28;20027;-63
2022/11/26 12:23:54;;;;;;;575.70;203.77;;;8.40;99.90;;;;;;5135156;28;20056;-63
2022/11/26 12:26:34;;;;;;;551.72;196.45;;;8.30;99.90;;;;;;5135030;28;20038;-63
2022/11/26 12:29:26;;;;;;;538.70;190.73;;;8.30;99.90;;;;;;5135018;28;20031;-63
2022/11/26 12:32:02;;;;;;;529.67;191.55;;;8.40;99.90;;;;;;5121708;27;20035;-63
2022/11/26 12:34:41;;;;;;;532.78;188.95;;;8.40;99.90;;;;;;5138717;27;20493;-63
2022/11/26 12:37:23;;;;;;;504.70;180.00;;;8.50;99.90;;;;;;5138705;27;20031;-63
2022/11/26 12:40:05;;;;;;;485.80;172.27;;;8.60;99.90;;;;;;5138483;27;20058;-62
2022/11/26 12:42:34;;;;;;;459.42;163.45;;;8.40;99.90;;;;;;5138760;27;20038;-62